Time;durP1;ratioP1;P1;durP2;ratioP2;P2;SDS_P1;SDS_P2;PMS_P1;PMS_P2;Temp;Humidity;BMP_temperature;BMP_pressure;BME280_temperature;BME280_humidity;BME280_pressure;Samples;Min_cycle;Max_cycle;Signal;HPM_P1;HPM_P2
2022/11/30 00:02:15;0.00;0.00;0.62;0.00;0.00;0.62;5.00;4.20;;;23.00;26.50;;;;;;2235795;62;20503;-65
2022/11/30 00:05:01;0.00;0.00;0.62;0.00;0.00;0.62;5.53;4.57;;;23.00;26.50;;;;;;2235369;62;20367;-65
2022/11/30 00:07:46;0.00;0.00;0.62;0.00;0.00;0.62;6.10;4.97;;;23.00;26.50;;;;;;2235556;62;20934;-66
2022/11/30 00:10:30;0.00;0.00;0.62;0.00;0.00;0.62;7.00;5.40;;;23.00;26.50;;;;;;2235469;62;20396;-67
2022/11/30 00:13:15;0.00;0.00;0.62;0.00;0.00;0.62;5.87;4.77;;;23.00;26.40;;;;;;2234754;62;20441;-64
2022/11/30 00:16:00;0.00;0.00;0.62;0.00;0.00;0.62;6.33;5.50;;;23.00;26.40;;;;;;2235494;62;20370;-64
2022/11/30 00:18:45;0.00;0.00;0.62;0.00;0.00;0.62;9.27;7.10;;;23.00;26.40;;;;;;2235593;62;21052;-64
2022/11/30 00:21:31;0.00;0.00;0.62;0.00;0.00;0.62;8.23;6.23;;;23.00;26.40;;;;;;2234653;62;20365;-66
2022/11/30 00:24:16;0.00;0.00;0.62;0.00;0.00;0.62;9.00;6.37;;;23.00;26.40;;;;;;2235444;62;20406;-64
2022/11/30 00:27:01;0.00;0.00;0.62;0.00;0.00;0.62;9.40;6.77;;;23.00;26.30;;;;;;2235203;62;20363;-65
2022/11/30 00:29:46;0.00;0.00;0.62;0.00;0.00;0.62;8.63;6.93;;;22.90;26.30;;;;;;2235377;62;20382;-64
2022/11/30 00:32:31;0.00;0.00;0.62;0.00;0.00;0.62;8.90;7.50;;;22.90;26.20;;;;;;2235120;62;20394;-66
2022/11/30 00:35:16;0.00;0.00;0.62;0.00;0.00;0.62;10.53;7.20;;;22.90;26.20;;;;;;2234119;62;20371;-66
2022/11/30 00:38:03;0.00;0.00;0.62;0.00;0.00;0.62;8.93;7.33;;;22.90;26.20;;;;;;2234934;62;20437;-63
2022/11/30 00:40:47;0.00;0.00;0.62;0.00;0.00;0.62;10.23;8.87;;;22.90;26.20;;;;;;2234708;62;20781;-64
2022/11/30 00:43:32;0.00;0.00;0.62;0.00;0.00;0.62;10.63;8.37;;;22.90;26.10;;;;;;2233853;62;20805;-65
2022/11/30 00:46:17;0.00;0.00;0.62;0.00;0.00;0.62;10.10;8.27;;;22.90;26.20;;;;;;2234892;62;20461;-66
2022/11/30 00:49:02;0.00;0.00;0.62;0.00;0.00;0.62;11.93;9.00;;;22.90;26.10;;;;;;2234706;62;20358;-65
2022/11/30 00:51:47;0.00;0.00;0.62;0.00;0.00;0.62;9.87;8.83;;;22.90;26.10;;;;;;2234263;62;20458;-65
2022/11/30 00:54:33;0.00;0.00;0.62;0.00;0.00;0.62;9.57;7.40;;;22.90;26.00;;;;;;2235192;62;20375;-65
2022/11/30 00:57:17;0.00;0.00;0.62;0.00;0.00;0.62;12.00;8.97;;;22.90;26.00;;;;;;2234448;62;20483;-65
2022/11/30 01:00:03;0.00;0.00;0.62;0.00;0.00;0.62;13.20;9.50;;;22.90;26.10;;;;;;2234832;62;20366;-65
2022/11/30 01:02:47;0.00;0.00;0.62;0.00;0.00;0.62;12.33;8.67;;;22.90;26.00;;;;;;2235155;62;20425;-65
2022/11/30 01:05:33;0.00;0.00;0.62;0.00;0.00;0.62;11.50;9.20;;;22.90;26.00;;;;;;2233983;62;20426;-64
2022/11/30 01:08:18;0.00;0.00;0.62;0.00;0.00;0.62;10.83;9.03;;;22.90;26.00;;;;;;2235288;62;20442;-65
2022/11/30 01:11:13;0.00;0.00;0.62;0.00;0.00;0.62;10.27;8.60;;;22.80;26.00;;;;;;2234597;62;20901;-63
2022/11/30 01:13:59;0.00;0.00;0.62;0.00;0.00;0.62;10.50;9.33;;;22.80;26.00;;;;;;2234764;62;20926;-66
2022/11/30 01:16:44;0.00;0.00;0.62;0.00;0.00;0.62;11.70;9.50;;;22.80;26.00;;;;;;2235019;62;20381;-65
2022/11/30 01:19:28;0.00;0.00;0.62;0.00;0.00;0.62;10.77;9.17;;;22.80;26.00;;;;;;2234690;62;20887;-65
2022/11/30 01:22:13;0.00;0.00;0.62;0.00;0.00;0.62;10.23;9.10;;;22.80;26.00;;;;;;2235168;62;20363;-65
2022/11/30 01:24:57;0.00;0.00;0.62;0.00;0.00;0.62;12.80;9.60;;;22.80;26.00;;;;;;2234976;62;20458;-65
2022/11/30 01:27:48;0.00;0.00;0.62;0.00;0.00;0.62;11.47;9.17;;;22.80;26.00;;;;;;2234169;62;20931;-66
2022/11/30 01:30:33;0.00;0.00;0.62;0.00;0.00;0.62;11.90;9.33;;;22.80;26.00;;;;;;2235135;62;20812;-64
2022/11/30 01:33:18;0.00;0.00;0.62;0.00;0.00;0.62;9.40;8.40;;;22.80;25.90;;;;;;2234520;62;20458;-66
2022/11/30 01:36:06;0.00;0.00;0.62;0.00;0.00;0.62;11.97;9.60;;;22.70;25.90;;;;;;2234512;62;20410;-66
2022/11/30 01:38:53;0.00;0.00;0.62;0.00;0.00;0.62;9.80;8.37;;;22.70;25.90;;;;;;2234788;62;20421;-66
2022/11/30 01:41:39;0.00;0.00;0.62;0.00;0.00;0.62;13.60;10.37;;;22.70;25.90;;;;;;2234301;62;20417;-65
2022/11/30 01:44:52;0.00;0.00;0.62;0.00;0.00;0.62;12.10;8.60;;;22.70;25.90;;;;;;2235250;62;20385;-65
2022/11/30 01:47:41;0.00;0.00;0.62;0.00;0.00;0.62;11.77;9.43;;;22.70;25.90;;;;;;2234970;62;20394;-65
2022/11/30 01:50:30;0.00;0.00;0.62;0.00;0.00;0.62;13.27;9.30;;;22.70;25.90;;;;;;2234650;62;20429;-65
2022/11/30 01:53:16;0.00;0.00;0.62;0.00;0.00;0.62;10.73;9.20;;;22.70;25.90;;;;;;2235214;62;20908;-65
2022/11/30 01:56:01;0.00;0.00;0.62;0.00;0.00;0.62;12.90;9.87;;;22.70;25.90;;;;;;2235044;62;20863;-64
2022/11/30 01:58:46;0.00;0.00;0.62;0.00;0.00;0.62;9.90;8.43;;;22.70;25.90;;;;;;2234671;62;20393;-65
2022/11/30 02:01:32;0.00;0.00;0.62;0.00;0.00;0.62;12.67;9.40;;;22.70;25.90;;;;;;2234782;62;20374;-65
2022/11/30 02:04:21;0.00;0.00;0.62;0.00;0.00;0.62;10.73;8.77;;;22.70;25.90;;;;;;2233797;62;20787;-65
2022/11/30 02:07:07;0.00;0.00;0.62;0.00;0.00;0.62;10.90;8.53;;;22.70;25.90;;;;;;2234786;62;20417;-65
2022/11/30 02:09:52;0.00;0.00;0.62;0.00;0.00;0.62;13.57;8.17;;;22.70;25.90;;;;;;2235050;62;20374;-64
2022/11/30 02:12:44;0.00;0.00;0.62;0.00;0.00;0.62;9.83;8.80;;;22.60;25.80;;;;;;2233779;62;20441;-63
2022/11/30 02:15:40;0.00;0.00;0.62;0.00;0.00;0.62;11.57;8.90;;;22.60;25.80;;;;;;2234932;62;20370;-65
2022/11/30 02:18:32;0.00;0.00;0.62;0.00;0.00;0.62;11.07;9.77;;;22.60;25.80;;;;;;2233998;62;20438;-64
2022/11/30 02:21:23;0.00;0.00;0.62;0.00;0.00;0.62;10.30;8.00;;;22.60;25.80;;;;;;2234557;62;20425;-64
2022/11/30 02:24:42;0.00;0.00;0.62;0.00;0.00;0.62;12.63;9.23;;;22.60;25.80;;;;;;2234889;62;20438;-66
2022/11/30 02:27:44;0.00;0.00;0.62;0.00;0.00;0.62;10.07;8.17;;;22.60;25.80;;;;;;2231065;62;20411;-66
2022/11/30 02:30:35;0.00;0.00;0.62;0.00;0.00;0.62;10.67;8.50;;;22.60;25.80;;;;;;2234831;62;20816;-65
2022/11/30 02:33:24;0.00;0.00;0.62;0.00;0.00;0.62;11.10;9.33;;;22.60;25.80;;;;;;2233829;62;20519;-66
2022/11/30 02:36:10;0.00;0.00;0.62;0.00;0.00;0.62;9.90;8.60;;;22.60;25.80;;;;;;2234618;62;20452;-65
2022/11/30 02:38:56;0.00;0.00;0.62;0.00;0.00;0.62;11.87;9.37;;;22.60;25.80;;;;;;2235083;62;20445;-65
2022/11/30 02:41:41;0.00;0.00;0.62;0.00;0.00;0.62;14.53;9.20;;;22.60;25.80;;;;;;2233583;62;20635;-64
2022/11/30 02:44:28;0.00;0.00;0.62;0.00;0.00;0.62;13.17;9.53;;;22.60;25.80;;;;;;2231666;62;20928;-65
2022/11/30 02:47:22;0.00;0.00;0.62;0.00;0.00;0.62;11.40;8.10;;;22.60;25.80;;;;;;2234556;62;20951;-64
2022/11/30 02:50:14;0.00;0.00;0.62;0.00;0.00;0.62;9.23;8.33;;;22.50;25.70;;;;;;2234104;62;20840;-64
2022/11/30 02:52:59;0.00;0.00;0.62;0.00;0.00;0.62;10.80;9.33;;;22.50;25.70;;;;;;2234495;62;20534;-66
2022/11/30 02:55:44;0.00;0.00;0.62;0.00;0.00;0.62;10.67;8.83;;;22.50;25.70;;;;;;2230993;62;20394;-64
2022/11/30 02:58:30;0.00;0.00;0.62;0.00;0.00;0.62;9.70;8.30;;;22.50;25.70;;;;;;2234604;62;20918;-65
2022/11/30 03:01:15;0.00;0.00;0.62;0.00;0.00;0.62;9.60;8.60;;;22.50;25.70;;;;;;2231687;62;20370;-65
2022/11/30 03:04:01;0.00;0.00;0.62;0.00;0.00;0.62;11.17;9.43;;;22.50;25.70;;;;;;2233644;62;20382;-65
2022/11/30 03:06:46;0.00;0.00;0.62;0.00;0.00;0.62;11.57;8.80;;;22.50;25.70;;;;;;2234832;62;20619;-64
2022/11/30 03:09:30;0.00;0.00;0.62;0.00;0.00;0.62;11.90;9.30;;;22.50;25.70;;;;;;2234383;62;20406;-66
2022/11/30 03:12:15;0.00;0.00;0.62;0.00;0.00;0.62;10.63;9.03;;;22.50;25.70;;;;;;2234048;62;20430;-66
2022/11/30 03:14:59;0.00;0.00;0.62;0.00;0.00;0.62;9.77;8.43;;;22.50;25.70;;;;;;2234687;62;20370;-66
2022/11/30 03:17:44;0.00;0.00;0.62;0.00;0.00;0.62;10.60;9.00;;;22.40;25.60;;;;;;2233961;62;20398;-66
2022/11/30 03:20:30;0.00;0.00;0.62;0.00;0.00;0.62;8.50;7.43;;;22.40;25.60;;;;;;2234188;62;20370;-66
2022/11/30 03:23:15;0.00;0.00;0.62;0.00;0.00;0.62;9.80;8.23;;;22.40;25.60;;;;;;2234734;62;20472;-65
2022/11/30 03:26:00;0.00;0.00;0.62;0.00;0.00;0.62;11.17;8.67;;;22.40;25.60;;;;;;2233660;62;20775;-65
2022/11/30 03:28:45;0.00;0.00;0.62;0.00;0.00;0.62;9.50;8.20;;;22.40;25.60;;;;;;2234903;62;20359;-63
2022/11/30 03:31:30;0.00;0.00;0.62;0.00;0.00;0.62;10.20;7.70;;;22.40;25.60;;;;;;2234070;62;20366;-65
2022/11/30 03:34:15;0.00;0.00;0.62;0.00;0.00;0.62;9.90;8.00;;;22.40;25.60;;;;;;2234027;62;20882;-65
2022/11/30 03:37:01;0.00;0.00;0.62;0.00;0.00;0.62;8.27;7.43;;;22.40;25.60;;;;;;2234713;62;20418;-65
2022/11/30 03:39:46;0.00;0.00;0.62;0.00;0.00;0.62;10.57;8.43;;;22.40;25.70;;;;;;2233864;62;20370;-64
2022/11/30 03:42:30;0.00;0.00;0.62;0.00;0.00;0.62;8.70;7.63;;;22.40;25.70;;;;;;2234606;62;20824;-65
2022/11/30 03:45:15;0.00;0.00;0.62;0.00;0.00;0.62;9.50;8.13;;;22.30;26.10;;;;;;2234399;62;20934;-66
2022/11/30 03:48:00;0.00;0.00;0.62;0.00;0.00;0.62;8.80;7.87;;;22.30;25.60;;;;;;2233718;62;20439;-63
2022/11/30 03:50:48;0.00;0.00;0.62;0.00;0.00;0.62;9.63;7.57;;;22.30;25.60;;;;;;2234609;62;20401;-66
2022/11/30 03:53:34;0.00;0.00;0.62;0.00;0.00;0.62;10.70;8.10;;;22.30;25.60;;;;;;2234048;62;20428;-65
2022/11/30 03:56:19;0.00;0.00;0.62;0.00;0.00;0.62;9.07;7.57;;;22.30;25.60;;;;;;2234192;62;20418;-65
2022/11/30 03:59:04;0.00;0.00;0.62;0.00;0.00;0.62;9.43;7.90;;;22.30;25.70;;;;;;2234457;62;20375;-66
2022/11/30 04:01:49;0.00;0.00;0.62;0.00;0.00;0.62;8.30;7.17;;;22.30;25.60;;;;;;2234134;62;20430;-63
2022/11/30 04:04:34;0.00;0.00;0.62;0.00;0.00;0.62;8.37;7.20;;;22.30;25.60;;;;;;2234188;62;20367;-65
2022/11/30 04:07:19;0.00;0.00;0.62;0.00;0.00;0.62;10.60;8.00;;;22.30;25.70;;;;;;2234550;62;20418;-65
2022/11/30 04:10:07;0.00;0.00;0.62;0.00;0.00;0.62;8.90;8.00;;;22.20;25.50;;;;;;2233922;62;20361;-65
2022/11/30 04:12:52;0.00;0.00;0.62;0.00;0.00;0.62;8.77;7.70;;;22.20;25.50;;;;;;2235061;62;20486;-65
2022/11/30 04:15:36;0.00;0.00;0.62;0.00;0.00;0.62;8.73;7.73;;;22.20;25.60;;;;;;2235146;62;20446;-65
2022/11/30 04:18:25;0.00;0.00;0.62;0.00;0.00;0.62;9.60;7.50;;;22.20;25.60;;;;;;2234648;62;20390;-65
2022/11/30 04:21:11;0.00;0.00;0.62;0.00;0.00;0.62;8.60;7.70;;;22.20;25.60;;;;;;2234909;62;20467;-65
2022/11/30 04:23:55;0.00;0.00;0.62;0.00;0.00;0.62;8.57;7.00;;;22.20;25.60;;;;;;2234809;62;20390;-65
2022/11/30 04:26:41;0.00;0.00;0.62;0.00;0.00;0.62;7.90;7.10;;;22.20;25.60;;;;;;2231748;62;20366;-64
2022/11/30 04:29:25;0.00;0.00;0.62;0.00;0.00;0.62;8.33;6.77;;;22.20;25.60;;;;;;2235336;62;20418;-65
2022/11/30 04:32:10;0.00;0.00;0.62;0.00;0.00;0.62;8.13;7.30;;;22.20;25.60;;;;;;2234212;62;20394;-66
2022/11/30 04:34:55;0.00;0.00;0.62;0.00;0.00;0.62;7.50;6.20;;;22.20;25.60;;;;;;2235159;62;20785;-65
2022/11/30 04:37:39;0.00;0.00;0.62;0.00;0.00;0.62;8.30;6.90;;;22.20;25.60;;;;;;2235130;62;20434;-65
2022/11/30 04:40:24;0.00;0.00;0.62;0.00;0.00;0.62;8.43;7.23;;;22.10;25.50;;;;;;2234099;62;20373;-65
2022/11/30 04:43:11;0.00;0.00;0.62;0.00;0.00;0.62;8.67;7.77;;;22.10;26.10;;;;;;2235056;62;20390;-65
2022/11/30 04:45:56;0.00;0.00;0.62;0.00;0.00;0.62;8.67;6.37;;;22.10;25.60;;;;;;2234932;62;20366;-66
2022/11/30 04:48:41;0.00;0.00;0.62;0.00;0.00;0.62;7.67;6.27;;;22.10;25.60;;;;;;2234410;62;20670;-66
2022/11/30 04:51:26;0.00;0.00;0.62;0.00;0.00;0.62;8.83;6.90;;;22.10;25.60;;;;;;2235166;62;20374;-65
2022/11/30 04:54:11;0.00;0.00;0.62;0.00;0.00;0.62;7.03;6.37;;;22.10;25.60;;;;;;2234363;62;20386;-65
2022/11/30 04:56:56;0.00;0.00;0.62;0.00;0.00;0.62;7.20;6.20;;;22.10;25.60;;;;;;2235358;62;20498;-64
2022/11/30 04:59:42;0.00;0.00;0.62;0.00;0.00;0.62;8.63;7.73;;;22.10;25.70;;;;;;2235034;62;20394;-65
2022/11/30 05:02:29;0.00;0.00;0.62;0.00;0.00;0.62;8.50;7.30;;;22.10;25.60;;;;;;2234083;62;20454;-65
2022/11/30 05:05:14;0.00;0.00;0.62;0.00;0.00;0.62;7.13;6.30;;;22.10;26.10;;;;;;2235183;62;20954;-65
2022/11/30 05:08:00;0.00;0.00;0.62;0.00;0.00;0.62;6.70;5.77;;;22.00;25.50;;;;;;2235058;62;20418;-65
2022/11/30 05:10:44;0.00;0.00;0.62;0.00;0.00;0.62;7.30;6.43;;;22.00;25.60;;;;;;2234330;62;20403;-65
2022/11/30 05:13:29;0.00;0.00;0.62;0.00;0.00;0.62;7.27;6.57;;;22.00;25.60;;;;;;2235170;62;20390;-65
2022/11/30 05:16:15;0.00;0.00;0.62;0.00;0.00;0.62;7.83;6.60;;;22.00;25.60;;;;;;2234444;62;20607;-65
2022/11/30 05:19:00;0.00;0.00;0.62;0.00;0.00;0.62;8.70;7.80;;;22.00;25.60;;;;;;2235166;62;20438;-64
2022/11/30 05:21:45;0.00;0.00;0.62;0.00;0.00;0.62;7.80;6.73;;;22.00;25.70;;;;;;2234812;62;20415;-66
2022/11/30 05:24:29;0.00;0.00;0.62;0.00;0.00;0.62;8.70;7.07;;;22.00;25.70;;;;;;2233893;62;20386;-64
2022/11/30 05:27:14;0.00;0.00;0.62;0.00;0.00;0.62;7.83;6.63;;;22.00;25.70;;;;;;2235247;62;21130;-64
2022/11/30 05:29:59;0.00;0.00;0.62;0.00;0.00;0.62;9.30;7.20;;;22.00;26.20;;;;;;2234757;62;21053;-64
2022/11/30 05:32:45;0.00;0.00;0.62;0.00;0.00;0.62;7.80;6.67;;;22.00;25.70;;;;;;2234018;62;20425;-64
2022/11/30 05:35:30;0.00;0.00;0.62;0.00;0.00;0.62;7.50;6.63;;;22.00;25.70;;;;;;2235437;62;20375;-67
2022/11/30 05:38:14;0.00;0.00;0.62;0.00;0.00;0.62;8.77;7.10;;;22.00;25.70;;;;;;2234385;62;20741;-67
2022/11/30 05:41:00;0.00;0.00;0.62;0.00;0.00;0.62;9.10;7.50;;;22.00;25.70;;;;;;2234445;62;20406;-67
2022/11/30 05:43:45;0.00;0.00;0.62;0.00;0.00;0.62;8.57;6.97;;;22.00;25.70;;;;;;2235104;62;20828;-66
2022/11/30 05:46:30;0.00;0.00;0.62;0.00;0.00;0.62;7.27;6.40;;;22.00;25.70;;;;;;2233846;62;20909;-67
2022/11/30 05:49:16;0.00;0.00;0.62;0.00;0.00;0.62;7.53;6.73;;;22.00;25.70;;;;;;2235494;62;20406;-67
2022/11/30 05:52:01;0.00;0.00;0.62;0.00;0.00;0.62;9.27;6.67;;;22.00;25.70;;;;;;2230217;62;20405;-67
2022/11/30 05:54:46;0.00;0.00;0.62;0.00;0.00;0.62;8.93;7.37;;;22.00;25.70;;;;;;2235964;62;20489;-65
2022/11/30 05:57:34;0.00;0.00;0.62;0.00;0.00;0.62;10.70;7.67;;;22.00;25.70;;;;;;2236360;62;20378;-66
2022/11/30 06:00:45;0.00;0.00;0.62;0.00;0.00;0.62;8.50;6.73;;;22.00;25.70;;;;;;2235547;62;20431;-64
2022/11/30 06:03:31;0.00;0.00;0.62;0.00;0.00;0.62;7.63;6.80;;;22.00;25.70;;;;;;2236483;62;20398;-66
2022/11/30 06:06:18;0.00;0.00;0.62;0.00;0.00;0.62;9.47;7.50;;;22.00;25.70;;;;;;2236232;62;20362;-68
2022/11/30 06:09:03;0.00;0.00;0.62;0.00;0.00;0.62;7.57;6.70;;;21.90;25.60;;;;;;2232619;62;20366;-69
2022/11/30 06:11:48;0.00;0.00;0.62;0.00;0.00;0.62;8.53;7.63;;;21.90;25.60;;;;;;2236401;62;20366;-68
2022/11/30 06:14:33;0.00;0.00;0.62;0.00;0.00;0.62;7.93;6.13;;;21.90;25.60;;;;;;2235849;62;20965;-65
2022/11/30 06:17:17;0.00;0.00;0.62;0.00;0.00;0.62;8.90;7.83;;;21.90;25.60;;;;;;2236056;62;20434;-67
2022/11/30 06:20:03;0.00;0.00;0.62;0.00;0.00;0.62;8.53;6.97;;;21.90;25.60;;;;;;2236164;62;20902;-67
2022/11/30 06:22:49;0.00;0.00;0.62;0.00;0.00;0.62;11.00;7.80;;;21.90;25.60;;;;;;2235743;62;20429;-67
2022/11/30 06:25:34;0.00;0.00;0.62;0.00;0.00;0.62;11.43;7.90;;;21.90;25.60;;;;;;2236320;62;20810;-66
2022/11/30 06:28:18;0.00;0.00;0.62;0.00;0.00;0.62;8.80;7.00;;;21.90;25.60;;;;;;2236094;62;20828;-67
2022/11/30 06:31:06;0.00;0.00;0.62;0.00;0.00;0.62;8.60;7.17;;;21.90;25.60;;;;;;2235647;62;20435;-69
2022/11/30 06:33:51;0.00;0.00;0.62;0.00;0.00;0.62;12.87;8.70;;;21.90;25.70;;;;;;2236029;62;20418;-68
2022/11/30 06:36:35;0.00;0.00;0.62;0.00;0.00;0.62;9.60;7.53;;;21.90;25.60;;;;;;2235795;62;20450;-65
2022/11/30 06:39:21;0.00;0.00;0.62;0.00;0.00;0.62;9.13;7.43;;;21.90;25.70;;;;;;2235841;62;20434;-64
2022/11/30 06:42:06;0.00;0.00;0.62;0.00;0.00;0.62;9.33;7.33;;;21.90;25.70;;;;;;2236158;62;20451;-68
2022/11/30 06:44:51;0.00;0.00;0.62;0.00;0.00;0.62;9.60;7.63;;;21.90;25.60;;;;;;2235726;62;20366;-67
2022/11/30 06:47:36;0.00;0.00;0.62;0.00;0.00;0.62;10.37;8.43;;;21.90;25.60;;;;;;2236049;62;20402;-67
2022/11/30 06:50:21;0.00;0.00;0.62;0.00;0.00;0.62;10.23;8.20;;;21.90;25.70;;;;;;2235760;62;20911;-68
2022/11/30 06:53:05;0.00;0.00;0.62;0.00;0.00;0.62;9.70;7.60;;;21.80;25.60;;;;;;2235558;62;20383;-66
2022/11/30 06:55:52;0.00;0.00;0.62;0.00;0.00;0.62;9.57;8.57;;;21.80;25.60;;;;;;2235912;62;20444;-65
2022/11/30 06:58:38;0.00;0.00;0.62;0.00;0.00;0.62;9.27;7.77;;;21.80;25.60;;;;;;2235960;62;20466;-66
2022/11/30 07:01:23;0.00;0.00;0.62;0.00;0.00;0.62;9.83;7.67;;;21.80;25.60;;;;;;2235777;62;20375;-68
2022/11/30 07:04:08;0.00;0.00;0.62;0.00;0.00;0.62;9.80;7.67;;;21.80;26.20;;;;;;2235900;62;20390;-64
2022/11/30 07:06:52;0.00;0.00;0.62;0.00;0.00;0.62;8.30;6.93;;;21.80;25.70;;;;;;2235833;62;20374;-65
2022/11/30 07:09:37;0.00;0.00;0.62;0.00;0.00;0.62;8.70;7.80;;;21.80;25.70;;;;;;2235640;62;20495;-70
2022/11/30 07:12:23;0.00;0.00;0.62;0.00;0.00;0.62;9.33;8.07;;;21.80;25.70;;;;;;2236258;62;20657;-69
2022/11/30 07:15:10;0.00;0.00;0.62;0.00;0.00;0.62;9.23;8.17;;;21.80;25.70;;;;;;2235558;62;20480;-64
2022/11/30 07:17:54;0.00;0.00;0.62;0.00;0.00;0.62;8.30;7.40;;;21.80;25.70;;;;;;2235895;62;20426;-65
2022/11/30 07:20:41;0.00;0.00;0.62;0.00;0.00;0.62;7.60;6.80;;;21.80;25.80;;;;;;2236048;62;20387;-64
2022/11/30 07:26:32;0.00;0.00;0.62;0.00;0.00;0.62;8.97;7.70;;;21.70;25.80;;;;;;2236100;62;20956;-61
2022/11/30 07:29:18;0.00;0.00;0.62;0.00;0.00;0.62;7.97;6.90;;;21.70;25.80;;;;;;2235725;62;20358;-70
2022/11/30 07:32:03;0.00;0.00;0.62;0.00;0.00;0.62;8.70;7.20;;;21.70;25.80;;;;;;2232647;62;20390;-69
2022/11/30 07:34:47;0.00;0.00;0.62;0.00;0.00;0.62;10.50;7.80;;;21.70;25.80;;;;;;2236142;62;20394;-69
2022/11/30 07:37:32;0.00;0.00;0.62;0.00;0.00;0.62;10.00;8.33;;;21.70;25.80;;;;;;2235276;62;20366;-64
2022/11/30 07:40:17;0.00;0.00;0.62;0.00;0.00;0.62;11.40;8.10;;;21.70;25.80;;;;;;2235952;62;20366;-68
2022/11/30 07:43:02;0.00;0.00;0.62;0.00;0.00;0.62;9.27;7.13;;;21.70;25.80;;;;;;2235934;61;20800;-69
2022/11/30 07:45:52;0.00;0.00;0.62;0.00;0.00;0.62;8.83;7.93;;;21.70;25.80;;;;;;2236118;62;20367;-67
2022/11/30 07:48:37;0.00;0.00;0.62;0.00;0.00;0.62;8.13;7.20;;;21.70;25.80;;;;;;2234907;62;20699;-62
2022/11/30 07:51:22;0.00;0.00;0.62;0.00;0.00;0.62;9.67;8.40;;;21.70;25.80;;;;;;2314693;54;20922;-63
2022/11/30 07:54:08;0.00;0.00;0.62;0.00;0.00;0.62;9.50;8.20;;;21.70;25.80;;;;;;2236200;62;20389;-63
2022/11/30 07:56:53;0.00;0.00;0.62;0.00;0.00;0.62;9.57;8.40;;;21.70;25.90;;;;;;2233000;62;20374;-67
2022/11/30 07:59:38;0.00;0.00;0.62;0.00;0.00;0.62;8.57;7.67;;;21.70;25.90;;;;;;2235523;62;20828;-63
2022/11/30 08:02:24;0.00;0.00;0.62;0.00;0.00;0.62;11.87;9.03;;;21.70;25.90;;;;;;2236411;62;20410;-64
2022/11/30 08:05:10;0.00;0.00;0.62;0.00;0.00;0.62;8.77;7.33;;;21.70;25.90;;;;;;2236076;62;20374;-65
2022/11/30 08:07:58;0.00;0.00;0.62;0.00;0.00;0.62;9.70;8.60;;;21.70;25.90;;;;;;2233084;62;20417;-67
2022/11/30 08:10:42;0.00;0.00;0.62;0.00;0.00;0.62;10.57;8.87;;;21.70;25.90;;;;;;2236116;62;20914;-63
2022/11/30 08:13:27;0.00;0.00;0.62;0.00;0.00;0.62;11.33;9.23;;;21.70;25.90;;;;;;2236200;62;20902;-64
2022/11/30 08:16:15;0.00;0.00;0.62;0.00;0.00;0.62;8.73;7.83;;;21.70;26.00;;;;;;2233852;62;20378;-66
2022/11/30 08:19:01;0.00;0.00;0.62;0.00;0.00;0.62;10.97;9.07;;;21.70;26.00;;;;;;2236826;62;20386;-64
2022/11/30 08:21:45;0.00;0.00;0.62;0.00;0.00;0.62;11.17;8.80;;;21.70;26.00;;;;;;2235700;62;20915;-68
2022/11/30 08:24:30;0.00;0.00;0.62;0.00;0.00;0.62;11.80;9.33;;;21.70;26.00;;;;;;2236353;62;20407;-66
2022/11/30 08:27:15;0.00;0.00;0.62;0.00;0.00;0.62;11.27;9.67;;;21.70;25.90;;;;;;2236668;62;20442;-63
2022/11/30 08:30:01;0.00;0.00;0.62;0.00;0.00;0.62;11.00;8.40;;;21.70;25.90;;;;;;2236755;62;20988;-65
2022/11/30 08:32:48;0.00;0.00;0.62;0.00;0.00;0.62;9.30;8.27;;;21.80;26.00;;;;;;2235070;62;20394;-62
2022/11/30 08:35:34;0.00;0.00;0.62;0.00;0.00;0.62;8.87;7.33;;;21.70;26.00;;;;;;2237460;62;20773;-61
2022/11/30 08:38:20;0.00;0.00;0.62;0.00;0.00;0.62;11.63;8.77;;;21.80;26.10;;;;;;2236743;62;20417;-61
2022/11/30 08:41:07;0.00;0.00;0.62;0.00;0.00;0.62;9.73;8.53;;;21.80;26.10;;;;;;2235985;62;20410;-61
2022/11/30 08:43:54;0.00;0.00;0.62;0.00;0.00;0.62;9.13;8.17;;;21.80;26.10;;;;;;2235809;62;20502;-63
2022/11/30 08:46:39;0.00;0.00;0.62;0.00;0.00;0.62;8.47;7.67;;;21.80;26.10;;;;;;2236380;62;20900;-66
2022/11/30 08:49:24;0.00;0.00;0.62;0.00;0.00;0.62;10.90;8.30;;;21.80;26.20;;;;;;2236069;62;20458;-62
2022/11/30 08:52:12;0.00;0.00;0.62;0.00;0.00;0.62;10.30;8.40;;;21.80;26.20;;;;;;2236234;62;20414;-64
2022/11/30 08:54:59;0.00;0.00;0.62;0.00;0.00;0.62;9.17;7.60;;;21.80;26.20;;;;;;2236050;62;20927;-65
2022/11/30 08:57:48;0.00;0.00;0.62;0.00;0.00;0.62;8.27;6.80;;;21.80;26.20;;;;;;2236055;62;20468;-66
2022/11/30 09:00:33;0.00;0.00;0.62;0.00;0.00;0.62;7.60;6.67;;;21.80;26.20;;;;;;2236034;62;20363;-66
2022/11/30 09:03:20;0.00;0.00;0.62;0.00;0.00;0.62;8.53;7.00;;;21.80;26.20;;;;;;2236020;62;20389;-61
2022/11/30 09:06:07;0.00;0.00;0.62;0.00;0.00;0.62;8.23;6.83;;;21.90;26.30;;;;;;2235662;62;20899;-64
2022/11/30 09:08:57;0.00;0.00;0.62;0.00;0.00;0.62;8.63;7.07;;;21.90;26.30;;;;;;2236279;62;20951;-63
2022/11/30 09:11:43;0.00;0.00;0.62;0.00;0.00;0.62;7.50;6.70;;;21.90;26.30;;;;;;2236159;62;20784;-66
2022/11/30 09:14:28;0.00;0.00;0.62;0.00;0.00;0.62;6.70;6.00;;;21.90;26.30;;;;;;2235945;62;20439;-63
2022/11/30 09:17:20;0.00;0.00;0.62;0.00;0.00;0.62;8.77;7.33;;;21.90;26.30;;;;;;2236068;62;20410;-65
2022/11/30 09:20:11;0.00;0.00;0.62;0.00;0.00;0.62;7.27;5.97;;;21.90;26.30;;;;;;2235996;62;20375;-67
2022/11/30 09:22:59;0.00;0.00;0.62;0.00;0.00;0.62;7.90;6.63;;;21.90;26.30;;;;;;2236076;62;20539;-66
2022/11/30 09:25:53;0.00;0.00;0.62;0.00;0.00;0.62;8.50;6.60;;;21.90;26.30;;;;;;2235885;62;20411;-62
2022/11/30 09:28:39;0.00;0.00;0.62;0.00;0.00;0.62;7.33;6.37;;;21.90;26.30;;;;;;2235530;62;20459;-63
2022/11/30 09:31:25;0.00;0.00;0.62;0.00;0.00;0.62;8.60;7.27;;;22.00;26.40;;;;;;2236467;62;20390;-63
2022/11/30 09:34:12;0.00;0.00;0.62;0.00;0.00;0.62;6.50;5.63;;;22.00;26.40;;;;;;2235746;62;20917;-65
2022/11/30 09:36:57;0.00;0.00;0.62;0.00;0.00;0.62;7.73;6.30;;;22.00;26.40;;;;;;2236053;62;20450;-64
2022/11/30 09:39:42;0.00;0.00;0.62;0.00;0.00;0.62;7.20;6.33;;;22.00;26.40;;;;;;2235773;62;20410;-63
2022/11/30 09:42:44;0.00;0.00;0.62;0.00;0.00;0.62;6.27;5.60;;;22.00;26.40;;;;;;2235801;62;20426;-63
2022/11/30 09:45:32;0.00;0.00;0.62;0.00;0.00;0.62;6.43;5.67;;;22.00;26.40;;;;;;2236307;62;20770;-67
2022/11/30 09:48:30;0.00;0.00;0.62;0.00;0.00;0.62;7.37;6.10;;;22.00;26.30;;;;;;2235569;62;20415;-66
2022/11/30 09:51:22;0.00;0.00;0.62;0.00;0.00;0.62;6.63;5.80;;;22.00;26.30;;;;;;2235563;62;20382;-65
2022/11/30 09:54:13;0.00;0.00;0.62;0.00;0.00;0.62;7.17;5.60;;;22.00;26.30;;;;;;2232833;62;20482;-68
2022/11/30 09:56:58;0.00;0.00;0.62;0.00;0.00;0.62;8.70;6.10;;;22.00;26.20;;;;;;2235868;62;20371;-67
2022/11/30 09:59:53;0.00;0.00;0.62;0.00;0.00;0.62;7.50;5.90;;;22.00;26.20;;;;;;2235704;62;20422;-67
2022/11/30 10:02:41;0.00;0.00;0.62;0.00;0.00;0.62;8.20;6.30;;;22.10;26.20;;;;;;2235761;62;20378;-67
2022/11/30 10:05:39;0.00;0.00;0.62;0.00;0.00;0.62;6.90;5.70;;;22.10;26.20;;;;;;2235339;62;20847;-66
2022/11/30 10:08:52;0.00;0.00;0.62;0.00;0.00;0.62;6.37;5.50;;;22.10;26.10;;;;;;2236043;62;20403;-66
2022/11/30 10:11:50;0.00;0.00;0.62;0.00;0.00;0.62;7.77;6.03;;;22.10;26.10;;;;;;2235953;62;20366;-66
2022/11/30 10:15:19;0.00;0.00;0.62;0.00;0.00;0.62;6.87;6.10;;;22.10;26.10;;;;;;2235861;62;20421;-67
2022/11/30 10:18:13;0.00;0.00;0.62;0.00;0.00;0.62;7.37;5.80;;;22.10;26.10;;;;;;2234651;62;20406;-66
2022/11/30 10:21:15;0.00;0.00;0.62;0.00;0.00;0.62;6.60;5.07;;;22.10;26.10;;;;;;2235430;62;20891;-66
2022/11/30 10:24:28;0.00;0.00;0.62;0.00;0.00;0.62;6.13;5.50;;;22.10;26.20;;;;;;2235450;62;20425;-61
2022/11/30 10:27:17;0.00;0.00;0.62;0.00;0.00;0.62;5.53;4.63;;;22.10;26.20;;;;;;2235996;62;20957;-61
2022/11/30 10:30:16;0.00;0.00;0.62;0.00;0.00;0.62;5.90;5.10;;;22.10;26.30;;;;;;2236194;62;20466;-65
2022/11/30 10:33:12;0.00;0.00;0.62;0.00;0.00;0.62;5.53;4.80;;;22.10;26.30;;;;;;2233034;62;20394;-63
2022/11/30 10:36:03;0.00;0.00;0.62;0.00;0.00;0.62;5.90;4.97;;;22.10;26.30;;;;;;2235783;62;20414;-66
2022/11/30 10:38:53;0.00;0.00;0.62;0.00;0.00;0.62;7.77;5.90;;;22.10;26.30;;;;;;2236162;62;20446;-67
2022/11/30 10:41:45;0.00;0.00;0.62;0.00;0.00;0.62;6.00;5.30;;;22.20;26.30;;;;;;2234649;62;21000;-63
2022/11/30 10:44:33;0.00;0.00;0.62;0.00;0.00;0.62;7.17;5.27;;;22.20;26.30;;;;;;2234658;61;20599;-65
2022/11/30 10:47:25;0.00;0.00;0.62;0.00;0.00;0.62;5.93;5.17;;;22.20;26.30;;;;;;2240002;61;20368;-62
2022/11/30 10:50:14;0.00;0.00;0.62;0.00;0.00;0.62;5.33;4.40;;;22.20;26.40;;;;;;2239824;61;20374;-66
2022/11/30 10:53:00;0.00;0.00;0.62;0.00;0.00;0.62;7.17;5.63;;;22.20;26.40;;;;;;2236856;61;20385;-69
2022/11/30 10:55:57;0.00;0.00;0.62;0.00;0.00;0.62;6.43;5.53;;;22.20;26.40;;;;;;2239894;61;20366;-62
2022/11/30 10:58:54;0.00;0.00;0.62;0.00;0.00;0.62;5.83;4.97;;;22.20;26.30;;;;;;2239782;61;20401;-65
2022/11/30 11:01:41;0.00;0.00;0.62;0.00;0.00;0.62;5.73;5.07;;;22.20;26.30;;;;;;2239638;61;20450;-62
2022/11/30 11:04:27;0.00;0.00;0.62;0.00;0.00;0.62;6.30;4.90;;;22.30;26.40;;;;;;2239489;61;20385;-67